createdAt,value
2019-05-12T00:02:09.218Z,7.70
2019-05-12T00:04:39.095Z,7.60
2019-05-12T00:07:09.009Z,7.70
2019-05-12T00:09:38.910Z,7.60
2019-05-12T00:12:08.846Z,7.60
2019-05-12T00:14:38.649Z,7.60
2019-05-12T00:17:08.507Z,7.60
2019-05-12T00:19:38.311Z,7.60
2019-05-12T00:22:08.108Z,7.60
2019-05-12T00:24:38.363Z,7.60
2019-05-12T00:27:11.186Z,7.60
2019-05-12T00:29:40.999Z,7.60
2019-05-12T00:32:10.815Z,7.60
2019-05-12T00:34:40.562Z,7.60
2019-05-12T00:37:10.376Z,7.60
2019-05-12T00:39:40.152Z,7.60
2019-05-12T00:42:09.990Z,7.60
2019-05-12T00:44:39.875Z,7.60
2019-05-12T00:47:09.669Z,7.60
2019-05-12T00:49:39.488Z,7.60
2019-05-12T00:52:09.399Z,7.60
2019-05-12T00:54:39.214Z,7.60
2019-05-12T00:57:09.039Z,7.50
2019-05-12T00:59:38.804Z,7.60
2019-05-12T01:02:08.644Z,7.60
2019-05-12T01:04:38.527Z,7.50
2019-05-12T01:07:08.719Z,7.60
2019-05-12T01:09:38.661Z,7.50
2019-05-12T01:12:08.628Z,7.60
2019-05-12T01:14:38.460Z,7.60
2019-05-12T01:17:08.481Z,7.60
2019-05-12T01:19:40.504Z,7.60
2019-05-12T01:22:10.019Z,7.60
2019-05-12T01:24:39.818Z,7.60
2019-05-12T01:27:09.662Z,7.60
2019-05-12T01:29:39.489Z,7.60
2019-05-12T01:32:20.518Z,7.60
2019-05-12T01:34:50.393Z,7.60
2019-05-12T01:37:27.982Z,7.60
2019-05-12T01:40:00.004Z,7.60
2019-05-12T01:42:29.199Z,7.60
2019-05-12T01:44:59.017Z,7.60
2019-05-12T01:47:29.232Z,7.60
2019-05-12T01:49:59.096Z,7.60
2019-05-12T01:52:28.905Z,7.60
2019-05-12T01:54:59.090Z,7.60
2019-05-12T01:57:29.096Z,7.60
2019-05-12T01:59:59.004Z,7.60
2019-05-12T02:02:28.867Z,7.60
2019-05-12T02:05:08.516Z,7.60
2019-05-12T02:07:50.043Z,7.60
2019-05-12T02:10:20.879Z,7.60
2019-05-12T02:12:50.655Z,7.60
2019-05-12T02:15:20.676Z,7.60
2019-05-12T02:17:50.540Z,7.60
2019-05-12T02:20:20.945Z,7.60
2019-05-12T02:22:50.810Z,7.60
2019-05-12T02:25:20.730Z,7.60
2019-05-12T02:27:50.603Z,7.60
2019-05-12T02:30:21.018Z,7.60
2019-05-12T02:32:57.512Z,7.60
2019-05-12T02:35:24.769Z,7.60
2019-05-12T02:37:55.073Z,7.60
2019-05-12T02:40:25.514Z,7.60
2019-05-12T02:42:55.548Z,7.60
2019-05-12T02:45:26.195Z,7.60
2019-05-12T02:47:55.977Z,7.60
2019-05-12T02:50:36.804Z,7.70
2019-05-12T02:53:07.621Z,7.70
2019-05-12T02:55:38.416Z,7.70
2019-05-12T02:58:08.796Z,7.70
2019-05-12T03:00:38.784Z,7.70
2019-05-12T03:03:14.434Z,7.70
2019-05-12T03:05:45.208Z,7.70
2019-05-12T03:08:15.680Z,7.70
2019-05-12T03:10:48.504Z,7.70
2019-05-12T03:13:18.343Z,7.70
2019-05-12T03:15:48.141Z,7.70
2019-05-12T03:18:17.947Z,7.70
2019-05-12T03:20:47.739Z,7.70
2019-05-12T03:23:19.249Z,7.60
2019-05-12T03:25:49.077Z,7.70
2019-05-12T03:28:19.033Z,7.70
2019-05-12T03:30:49.423Z,7.60
2019-05-12T03:33:20.444Z,7.60
2019-05-12T03:35:54.962Z,7.60
2019-05-12T03:38:25.042Z,7.60
2019-05-12T03:40:55.076Z,7.60
2019-05-12T03:43:25.009Z,7.60
2019-05-12T03:45:55.920Z,7.60
2019-05-12T03:48:25.982Z,7.60
2019-05-12T03:50:55.860Z,7.50
2019-05-12T03:53:25.672Z,7.50
2019-05-12T03:55:55.558Z,7.50
2019-05-12T03:58:25.761Z,7.50
2019-05-12T04:00:55.774Z,7.50
2019-05-12T04:03:25.641Z,7.50
2019-05-12T04:05:55.582Z,7.50
2019-05-12T04:08:28.020Z,7.50
2019-05-12T04:10:57.901Z,7.60
2019-05-12T04:13:27.630Z,7.60
2019-05-12T04:15:57.525Z,7.60
2019-05-12T04:18:27.305Z,7.60
2019-05-12T04:20:57.183Z,7.60
2019-05-12T04:23:26.962Z,7.60
2019-05-12T04:26:07.415Z,7.60
2019-05-12T04:28:28.223Z,7.70
2019-05-12T04:30:58.057Z,7.70
2019-05-12T04:33:27.813Z,7.80
2019-05-12T04:35:57.603Z,7.80
2019-05-12T04:38:27.379Z,7.90
2019-05-12T04:40:57.421Z,7.90
2019-05-12T04:43:27.225Z,8.00
2019-05-12T04:45:57.014Z,8.00
2019-05-12T04:48:26.877Z,8.10
2019-05-12T04:50:56.766Z,8.10
2019-05-12T04:53:26.612Z,8.20
2019-05-12T04:56:07.502Z,8.30
2019-05-12T04:58:28.288Z,8.30
2019-05-12T05:00:58.613Z,8.40
2019-05-12T05:03:28.421Z,8.40
2019-05-12T05:05:58.308Z,8.40
2019-05-12T05:08:28.077Z,8.30
2019-05-12T05:10:57.923Z,8.40
2019-05-12T05:13:27.701Z,8.50
2019-05-12T05:15:57.536Z,8.60
2019-05-12T05:18:27.367Z,8.70
2019-05-12T05:20:57.175Z,8.80
2019-05-12T05:23:26.991Z,8.90
2019-05-12T05:25:56.787Z,9.10
2019-05-12T05:28:26.606Z,9.20
2019-05-12T05:30:56.427Z,9.40
2019-05-12T05:33:26.279Z,9.60
2019-05-12T05:35:56.088Z,9.80
2019-05-12T05:38:25.922Z,10.00
2019-05-12T05:40:59.745Z,10.00
2019-05-12T05:43:27.210Z,10.10
2019-05-12T05:46:02.489Z,10.10
2019-05-12T05:48:31.699Z,10.20
2019-05-12T05:51:04.604Z,10.30
2019-05-12T05:53:33.423Z,10.50
2019-05-12T05:56:04.091Z,10.70
2019-05-12T05:58:34.088Z,10.90
2019-05-12T06:01:08.015Z,10.90
2019-05-12T06:03:35.359Z,10.90
2019-05-12T06:06:10.906Z,11.00
2019-05-12T06:08:36.756Z,11.20
2019-05-12T06:11:08.533Z,11.50
2019-05-12T06:13:40.101Z,11.50
2019-05-12T06:16:11.703Z,11.70
2019-05-12T06:18:43.738Z,11.80
2019-05-12T06:21:13.765Z,11.80
2019-05-12T06:23:43.776Z,11.80
2019-05-12T06:26:14.168Z,11.60
2019-05-12T06:28:44.190Z,11.60
2019-05-12T06:31:19.029Z,11.80
2019-05-12T06:33:47.714Z,11.80
2019-05-12T06:36:22.273Z,11.70
2019-05-12T06:38:54.185Z,11.60
2019-05-12T06:41:25.929Z,11.20
2019-05-12T06:43:55.445Z,10.90
2019-05-12T06:46:25.933Z,10.60
2019-05-12T06:49:00.851Z,10.50
2019-05-12T06:51:27.595Z,10.50
2019-05-12T06:54:00.953Z,10.50
2019-05-12T06:56:29.157Z,10.60
2019-05-12T06:59:01.037Z,10.80
2019-05-12T07:01:30.514Z,10.90
2019-05-12T07:04:05.108Z,11.00
2019-05-12T07:06:33.879Z,11.10
2019-05-12T07:09:09.828Z,11.10
2019-05-12T07:11:44.983Z,11.20
2019-05-12T07:14:18.890Z,11.40
2019-05-12T07:17:01.821Z,11.50
2019-05-12T07:19:25.672Z,11.80
2019-05-12T07:21:59.844Z,12.10
2019-05-12T07:24:27.199Z,12.20
2019-05-12T07:27:04.143Z,12.10
2019-05-12T07:29:29.150Z,12.00
2019-05-12T07:31:59.098Z,12.20
2019-05-12T07:34:28.894Z,12.30
2019-05-12T07:36:59.242Z,12.40
2019-05-12T07:39:30.586Z,12.60
2019-05-12T07:42:03.690Z,12.60
2019-05-12T07:44:39.950Z,12.60
2019-05-12T07:47:07.329Z,12.70
2019-05-12T07:49:38.741Z,12.70
2019-05-12T07:52:08.808Z,12.80
2019-05-12T07:54:39.600Z,12.90
2019-05-12T07:57:12.721Z,13.00
2019-05-12T07:59:41.225Z,13.10
2019-05-12T08:02:14.127Z,13.20
2019-05-12T08:04:44.021Z,13.40
2019-05-12T08:07:14.611Z,13.50
2019-05-12T08:09:44.759Z,13.40
2019-05-12T08:12:19.117Z,13.40
2019-05-12T08:14:46.520Z,13.50
2019-05-12T08:17:19.559Z,13.40
2019-05-12T08:19:47.992Z,13.50
2019-05-12T08:22:18.790Z,13.50
2019-05-12T08:24:49.566Z,13.60
2019-05-12T08:27:19.539Z,13.60
2019-05-12T08:29:54.487Z,14.00
2019-05-12T08:32:23.270Z,14.20
2019-05-12T08:34:54.079Z,14.20
2019-05-12T08:37:24.495Z,14.10
2019-05-12T08:40:03.293Z,14.20
2019-05-12T08:42:26.567Z,14.30
2019-05-12T08:44:56.755Z,14.40
2019-05-12T08:47:29.024Z,14.50
2019-05-12T08:49:58.970Z,14.70
2019-05-12T08:52:30.557Z,14.80
2019-05-12T08:55:00.546Z,14.80
2019-05-12T08:57:32.548Z,14.80
2019-05-12T09:00:03.301Z,14.70
2019-05-12T09:02:34.432Z,14.80
2019-05-12T09:05:04.805Z,14.90
2019-05-12T09:07:39.718Z,15.00
2019-05-12T09:10:08.046Z,15.10
2019-05-12T09:12:37.888Z,15.10
2019-05-12T09:15:08.639Z,14.90
2019-05-12T09:17:49.069Z,14.80
2019-05-12T09:20:09.999Z,14.90
2019-05-12T09:22:39.763Z,14.80
2019-05-12T09:25:09.860Z,15.00
2019-05-12T09:27:44.822Z,15.10
2019-05-12T09:30:11.589Z,14.90
2019-05-12T09:32:48.037Z,14.70
2019-05-12T09:35:14.403Z,14.60
2019-05-12T09:37:44.450Z,14.60
2019-05-12T09:40:15.018Z,14.70
2019-05-12T09:42:45.944Z,14.70
2019-05-12T09:45:15.904Z,14.80
2019-05-12T09:47:45.772Z,14.70
2019-05-12T09:50:20.092Z,14.50
2019-05-12T09:52:50.208Z,14.50
2019-05-12T09:55:22.008Z,14.40
2019-05-12T09:57:50.749Z,14.30
2019-05-12T10:00:30.494Z,14.30
2019-05-12T10:03:00.909Z,14.30
2019-05-12T10:05:41.361Z,14.30
2019-05-12T10:08:29.312Z,14.20
2019-05-12T10:11:16.523Z,14.20
2019-05-12T10:13:44.930Z,14.20
2019-05-12T10:16:25.372Z,14.30
2019-05-12T10:18:55.298Z,14.30
2019-05-12T10:21:26.907Z,14.40
2019-05-12T10:24:01.753Z,14.30
2019-05-12T10:26:41.202Z,14.50
2019-05-12T10:29:17.544Z,14.40
2019-05-12T10:31:44.745Z,14.40
2019-05-12T10:34:23.607Z,14.30
2019-05-12T10:36:54.047Z,14.20
2019-05-12T10:39:26.722Z,14.10
2019-05-12T10:41:57.204Z,14.00
2019-05-12T10:44:30.103Z,14.00
2019-05-12T10:47:01.433Z,14.10
2019-05-12T10:49:33.717Z,14.20
2019-05-12T10:52:04.025Z,14.10
2019-05-12T10:54:36.924Z,14.10
2019-05-12T10:57:06.922Z,14.20
2019-05-12T10:59:38.692Z,14.20
2019-05-12T11:02:08.749Z,14.30
2019-05-12T11:04:41.118Z,14.40
2019-05-12T11:07:10.162Z,14.50
2019-05-12T11:09:40.848Z,14.50
2019-05-12T11:12:18.913Z,14.50
2019-05-12T11:14:45.294Z,14.50
2019-05-12T11:17:16.579Z,14.60
2019-05-12T11:19:51.376Z,14.60
2019-05-12T11:22:19.848Z,14.60
2019-05-12T11:24:52.687Z,14.70
2019-05-12T11:27:24.037Z,14.70
2019-05-12T11:29:56.794Z,14.70
2019-05-12T11:32:28.808Z,14.80
2019-05-12T11:34:59.502Z,14.80
2019-05-12T11:37:30.062Z,14.80
2019-05-12T11:40:00.038Z,14.80
2019-05-12T11:42:46.832Z,14.80
2019-05-12T11:45:14.892Z,14.90
2019-05-12T11:47:45.986Z,15.00
2019-05-12T11:50:17.031Z,15.20
2019-05-12T11:52:50.988Z,15.10
2019-05-12T11:55:26.166Z,15.20
2019-05-12T11:57:54.491Z,15.30
2019-05-12T12:00:35.312Z,15.30
2019-05-12T12:03:18.233Z,15.20
2019-05-12T12:05:47.690Z,15.20
2019-05-12T12:08:17.946Z,15.10
2019-05-12T12:10:49.428Z,15.20
2019-05-12T12:13:27.710Z,15.20
2019-05-12T12:15:54.113Z,15.40
2019-05-12T12:18:24.667Z,15.60
2019-05-12T12:21:02.909Z,15.80
2019-05-12T12:23:26.390Z,16.00
2019-05-12T12:26:03.854Z,16.10
2019-05-12T12:28:34.437Z,16.10
2019-05-12T12:31:07.795Z,16.10
2019-05-12T12:33:40.655Z,16.20
2019-05-12T12:36:09.662Z,16.40
2019-05-12T12:38:39.654Z,16.50
2019-05-12T12:41:10.276Z,16.50
2019-05-12T12:43:43.304Z,16.40
2019-05-12T12:46:21.506Z,16.50
2019-05-12T12:48:54.097Z,16.50
2019-05-12T12:51:24.624Z,16.60
2019-05-12T12:53:54.644Z,16.70
2019-05-12T12:56:29.823Z,16.80
2019-05-12T12:59:01.873Z,16.90
2019-05-12T13:01:32.577Z,17.00
2019-05-12T13:04:04.666Z,17.10
2019-05-12T13:06:59.052Z,17.10
2019-05-12T13:09:28.134Z,17.20
2019-05-12T13:12:15.596Z,17.00
2019-05-12T13:14:40.038Z,17.00
2019-05-12T13:17:09.856Z,17.10
2019-05-12T13:19:40.924Z,17.10
2019-05-12T13:22:17.726Z,17.20
2019-05-12T13:24:45.635Z,17.30
2019-05-12T13:27:36.846Z,17.40
2019-05-12T13:30:06.060Z,17.40
2019-05-12T13:32:37.894Z,17.50
2019-05-12T13:35:14.704Z,17.60
2019-05-12T13:37:43.124Z,17.70
2019-05-12T13:40:13.097Z,17.60
2019-05-12T13:42:44.188Z,17.60
2019-05-12T13:45:16.426Z,17.60
2019-05-12T13:47:48.152Z,17.40
2019-05-12T13:50:21.485Z,17.40
2019-05-12T13:52:49.840Z,17.50
2019-05-12T13:55:39.351Z,17.70
2019-05-12T13:58:19.829Z,17.80
2019-05-12T14:01:09.265Z,17.90
2019-05-12T14:03:21.618Z,18.10
2019-05-12T14:05:53.065Z,18.10
2019-05-12T14:08:23.874Z,18.10
2019-05-12T14:10:59.399Z,18.00
2019-05-12T14:13:27.801Z,17.90
2019-05-12T14:15:57.719Z,17.80
2019-05-12T14:18:57.163Z,17.70
2019-05-12T14:21:26.058Z,17.80
2019-05-12T14:23:56.381Z,17.90
2019-05-12T14:26:26.813Z,17.90
2019-05-12T14:28:56.931Z,17.90
2019-05-12T14:31:30.626Z,17.70
2019-05-12T14:33:59.617Z,17.60
2019-05-12T14:36:32.043Z,17.70
2019-05-12T14:39:06.244Z,17.80
2019-05-12T14:41:34.542Z,17.90
2019-05-12T14:44:06.709Z,17.80
2019-05-12T14:46:50.668Z,17.60
2019-05-12T14:49:25.700Z,17.50
2019-05-12T14:51:53.709Z,17.40
2019-05-12T14:54:24.027Z,17.40
2019-05-12T14:56:57.717Z,17.40
2019-05-12T15:00:03.830Z,17.40
2019-05-12T15:02:33.233Z,17.30
2019-05-12T15:05:06.574Z,17.20
2019-05-12T15:07:42.678Z,17.10
2019-05-12T15:10:18.929Z,17.00
2019-05-12T15:12:51.052Z,17.00
2019-05-12T15:15:24.114Z,16.90
2019-05-12T15:18:10.111Z,16.80
2019-05-12T15:20:41.341Z,16.80
2019-05-12T15:23:14.110Z,16.80
2019-05-12T15:25:43.592Z,16.80
2019-05-12T15:28:14.676Z,16.70
2019-05-12T15:30:44.967Z,16.70
2019-05-12T15:33:14.815Z,16.60
2019-05-12T15:35:45.826Z,16.50
2019-05-12T15:38:16.917Z,16.50
2019-05-12T15:40:47.867Z,16.40
2019-05-12T15:43:18.433Z,16.30
2019-05-12T15:45:55.332Z,16.20
2019-05-12T15:48:25.602Z,16.20
2019-05-12T15:50:54.020Z,16.10
2019-05-12T15:53:26.880Z,16.00
2019-05-12T15:55:56.249Z,16.00
2019-05-12T15:58:26.407Z,16.00
2019-05-12T16:00:58.044Z,15.90
2019-05-12T16:03:28.858Z,15.90
2019-05-12T16:06:01.369Z,15.80
2019-05-12T16:08:31.184Z,15.80
2019-05-12T16:11:01.679Z,15.70
2019-05-12T16:13:46.959Z,15.60
2019-05-12T16:16:14.418Z,15.60
2019-05-12T16:18:56.339Z,15.60
2019-05-12T16:21:26.316Z,15.60
2019-05-12T16:23:56.886Z,15.50
2019-05-12T16:26:28.493Z,15.50
2019-05-12T16:29:03.141Z,15.40
2019-05-12T16:31:33.958Z,15.40
2019-05-12T16:34:06.171Z,15.40
2019-05-12T16:36:36.320Z,15.30
2019-05-12T16:39:09.897Z,15.20
2019-05-12T16:41:40.673Z,15.10
2019-05-12T16:44:17.416Z,15.10
2019-05-12T16:46:45.464Z,15.00
2019-05-12T16:49:16.098Z,15.00
2019-05-12T16:51:47.588Z,14.90
2019-05-12T16:54:18.543Z,14.90
2019-05-12T16:57:00.151Z,14.90
2019-05-12T16:59:30.445Z,14.80
2019-05-12T17:02:05.582Z,14.80
2019-05-12T17:04:33.360Z,14.70
2019-05-12T17:07:04.099Z,14.70
2019-05-12T17:09:34.090Z,14.70
2019-05-12T17:12:14.581Z,14.70
2019-05-12T17:14:49.907Z,14.60
2019-05-12T17:17:24.630Z,14.60
2019-05-12T17:19:55.388Z,14.50
2019-05-12T17:22:54.637Z,14.40
2019-05-12T17:25:19.499Z,14.30
2019-05-12T17:27:49.483Z,14.20
2019-05-12T17:30:23.758Z,14.20
2019-05-12T17:33:00.698Z,14.10
2019-05-12T17:35:26.993Z,14.10
2019-05-12T17:37:56.421Z,14.00
2019-05-12T17:40:26.412Z,13.90
2019-05-12T17:43:05.565Z,13.80
2019-05-12T17:45:29.071Z,13.70
2019-05-12T17:48:02.658Z,13.60
2019-05-12T17:50:34.420Z,13.50
2019-05-12T17:53:04.637Z,13.50
2019-05-12T17:55:34.726Z,13.50
2019-05-12T17:58:06.399Z,13.50
2019-05-12T18:00:41.273Z,13.50
2019-05-12T18:03:18.130Z,13.50
2019-05-12T18:05:42.414Z,13.40
2019-05-12T18:08:14.214Z,13.40
2019-05-12T18:10:47.837Z,13.40
2019-05-12T18:13:23.037Z,13.30
2019-05-12T18:15:48.519Z,13.20
2019-05-12T18:18:24.152Z,13.20
2019-05-12T18:20:52.868Z,13.10
2019-05-12T18:23:26.242Z,13.10
2019-05-12T18:25:55.910Z,13.00
2019-05-12T18:28:27.574Z,12.90
2019-05-12T18:30:57.829Z,12.80
2019-05-12T18:33:36.708Z,12.70
2019-05-12T18:36:04.720Z,12.60
2019-05-12T18:38:35.242Z,12.50
2019-05-12T18:41:05.404Z,12.40
2019-05-12T18:43:35.222Z,12.30
2019-05-12T18:46:08.893Z,12.30
2019-05-12T18:48:36.750Z,12.20
2019-05-12T18:51:11.806Z,12.20
2019-05-12T18:53:37.932Z,12.10
2019-05-12T18:56:10.423Z,12.10
2019-05-12T18:58:39.633Z,12.00
2019-05-12T19:01:09.497Z,12.00
2019-05-12T19:03:49.800Z,11.90
2019-05-12T19:06:14.124Z,11.80
2019-05-12T19:08:44.052Z,11.80
2019-05-12T19:11:22.598Z,11.60
2019-05-12T19:13:51.639Z,11.50
2019-05-12T19:16:17.164Z,11.40
2019-05-12T19:18:47.980Z,11.40
2019-05-12T19:21:20.130Z,11.30
2019-05-12T19:23:49.413Z,11.30
2019-05-12T19:26:19.289Z,11.20
2019-05-12T19:28:53.143Z,11.10
2019-05-12T19:31:21.020Z,11.00
2019-05-12T19:34:10.315Z,10.90
2019-05-12T19:36:24.040Z,10.80
2019-05-12T19:38:54.502Z,10.70
2019-05-12T19:41:24.655Z,10.60
2019-05-12T19:43:54.733Z,10.40
2019-05-12T19:46:24.553Z,10.30
2019-05-12T19:48:55.049Z,10.20
2019-05-12T19:51:28.299Z,10.10
2019-05-12T19:53:58.543Z,9.90
2019-05-12T19:56:34.517Z,9.80
2019-05-12T19:59:01.316Z,9.60
2019-05-12T20:01:34.381Z,9.40
2019-05-12T20:04:03.981Z,9.20
2019-05-12T20:06:33.799Z,9.00
2019-05-12T20:09:10.038Z,8.90
2019-05-12T20:11:36.669Z,8.70
2019-05-12T20:14:14.899Z,8.60
2019-05-12T20:16:40.414Z,8.50
2019-05-12T20:19:10.234Z,8.40
2019-05-12T20:21:40.071Z,8.50
2019-05-12T20:24:09.879Z,8.50
2019-05-12T20:26:40.243Z,8.50
2019-05-12T20:29:13.807Z,8.50
2019-05-12T20:31:48.416Z,8.50
2019-05-12T20:34:17.904Z,8.50
2019-05-12T20:36:49.462Z,8.40
2019-05-12T20:39:21.708Z,8.30
2019-05-12T20:41:54.763Z,8.20
2019-05-12T20:44:23.787Z,8.10
2019-05-12T20:47:01.510Z,8.00
2019-05-12T20:49:28.864Z,7.90
2019-05-12T20:52:03.757Z,7.80
2019-05-12T20:54:33.539Z,7.70
2019-05-12T20:57:07.819Z,7.70
2019-05-12T20:59:35.376Z,7.60
2019-05-12T21:02:05.587Z,7.50
2019-05-12T21:04:37.973Z,7.50
2019-05-12T21:07:07.401Z,7.40
2019-05-12T21:09:37.284Z,7.40
2019-05-12T21:12:07.200Z,7.30
2019-05-12T21:14:37.141Z,7.30
2019-05-12T21:17:09.559Z,7.30
2019-05-12T21:19:40.146Z,7.20
2019-05-12T21:22:09.961Z,7.20
2019-05-12T21:24:40.125Z,7.10
2019-05-12T21:27:18.298Z,7.00
2019-05-12T21:29:43.643Z,7.00
2019-05-12T21:32:16.693Z,7.10
2019-05-12T21:34:45.006Z,7.20
2019-05-12T21:37:14.895Z,7.30
2019-05-12T21:39:46.853Z,7.30
2019-05-12T21:42:18.941Z,7.40
2019-05-12T21:44:49.166Z,7.50
2019-05-12T21:47:19.570Z,7.50
2019-05-12T21:49:52.821Z,7.60
2019-05-12T21:52:23.705Z,7.60
2019-05-12T21:54:55.480Z,7.70
2019-05-12T21:57:30.840Z,7.80
2019-05-12T21:59:56.436Z,7.80
2019-05-12T22:02:30.794Z,7.80
2019-05-12T22:05:04.239Z,7.80
2019-05-12T22:07:39.739Z,7.80
2019-05-12T22:10:06.944Z,7.70
2019-05-12T22:12:37.673Z,7.60
2019-05-12T22:15:11.324Z,7.50
2019-05-12T22:17:58.732Z,7.40
2019-05-12T22:20:32.375Z,7.20
2019-05-12T22:23:11.700Z,7.10
2019-05-12T22:25:36.825Z,7.00
2019-05-12T22:28:10.048Z,6.80
2019-05-12T22:30:43.759Z,6.70
2019-05-12T22:33:17.236Z,6.60
2019-05-12T22:36:00.722Z,6.40
2019-05-12T22:38:20.975Z,6.30
2019-05-12T22:40:56.195Z,6.20
2019-05-12T22:43:25.015Z,6.10
2019-05-12T22:45:54.963Z,6.00
2019-05-12T22:48:29.879Z,5.80
2019-05-12T22:50:57.690Z,5.70
2019-05-12T22:53:29.993Z,5.60
2019-05-12T22:56:02.993Z,5.50
2019-05-12T22:58:33.620Z,5.50
2019-05-12T23:01:05.090Z,5.30
2019-05-12T23:03:34.531Z,5.30
2019-05-12T23:06:20.405Z,5.20
2019-05-12T23:08:38.711Z,5.10
2019-05-12T23:11:07.333Z,5.10
2019-05-12T23:13:40.949Z,5.00
2019-05-12T23:16:08.696Z,4.90
2019-05-12T23:18:38.614Z,4.90
2019-05-12T23:21:13.684Z,4.80
2019-05-12T23:23:40.011Z,4.80
2019-05-12T23:26:09.801Z,4.70
2019-05-12T23:28:40.380Z,4.70
2019-05-12T23:31:13.258Z,4.70
2019-05-12T23:33:44.109Z,4.70
2019-05-12T23:36:15.723Z,4.70
2019-05-12T23:38:45.560Z,4.60
2019-05-12T23:41:15.366Z,4.60
2019-05-12T23:43:45.234Z,4.60
2019-05-12T23:46:15.042Z,4.50
2019-05-12T23:48:44.888Z,4.50
2019-05-12T23:51:14.666Z,4.40
2019-05-12T23:53:44.460Z,4.40
2019-05-12T23:56:14.344Z,4.30
2019-05-12T23:58:44.179Z,4.30
